sensor_id;sensor_type;location;lat;lon;timestamp;P1;durP1;ratioP1;P2;durP2;ratioP2
65799;SDS011;52544;48.116;11.660;2023-05-18T00:02:02;8.85;;;4.28;;
65799;SDS011;52544;48.116;11.660;2023-05-18T00:04:30;7.53;;;4.20;;
65799;SDS011;52544;48.116;11.660;2023-05-18T00:06:58;8.45;;;4.22;;
65799;SDS011;52544;48.116;11.660;2023-05-18T00:09:27;10.82;;;5.15;;
65799;SDS011;52544;48.116;11.660;2023-05-18T00:11:54;9.88;;;4.10;;
65799;SDS011;52544;48.116;11.660;2023-05-18T00:14:20;10.10;;;4.47;;
65799;SDS011;52544;48.116;11.660;2023-05-18T00:16:46;7.75;;;4.22;;
65799;SDS011;52544;48.116;11.660;2023-05-18T00:19:12;10.90;;;4.88;;
65799;SDS011;52544;48.116;11.660;2023-05-18T00:21:41;10.50;;;4.97;;
65799;SDS011;52544;48.116;11.660;2023-05-18T00:24:08;8.10;;;4.75;;
65799;SDS011;52544;48.116;11.660;2023-05-18T00:26:40;11.75;;;4.47;;
65799;SDS011;52544;48.116;11.660;2023-05-18T00:29:07;12.23;;;4.90;;
65799;SDS011;52544;48.116;11.660;2023-05-18T00:31:33;11.73;;;5.20;;
65799;SDS011;52544;48.116;11.660;2023-05-18T00:34:10;11.93;;;4.38;;
65799;SDS011;52544;48.116;11.660;2023-05-18T00:36:37;8.15;;;4.85;;
65799;SDS011;52544;48.116;11.660;2023-05-18T00:39:03;9.38;;;4.72;;
65799;SDS011;52544;48.116;11.660;2023-05-18T00:41:29;9.93;;;4.97;;
65799;SDS011;52544;48.116;11.660;2023-05-18T00:43:55;9.65;;;5.05;;
65799;SDS011;52544;48.116;11.660;2023-05-18T00:46:22;9.00;;;4.43;;
65799;SDS011;52544;48.116;11.660;2023-05-18T00:48:51;11.45;;;4.75;;
65799;SDS011;52544;48.116;11.660;2023-05-18T00:51:18;11.70;;;4.57;;
65799;SDS011;52544;48.116;11.660;2023-05-18T00:53:47;8.20;;;4.45;;
65799;SDS011;52544;48.116;11.660;2023-05-18T00:56:13;9.93;;;4.68;;
65799;SDS011;52544;48.116;11.660;2023-05-18T00:58:39;8.27;;;4.55;;
65799;SDS011;52544;48.116;11.660;2023-05-18T01:01:06;10.25;;;4.85;;
65799;SDS011;52544;48.116;11.660;2023-05-18T01:03:33;8.25;;;4.45;;
65799;SDS011;52544;48.116;11.660;2023-05-18T01:06:03;11.90;;;4.60;;
65799;SDS011;52544;48.116;11.660;2023-05-18T01:08:30;13.57;;;5.13;;
65799;SDS011;52544;48.116;11.660;2023-05-18T01:13:58;8.95;;;4.50;;
65799;SDS011;52544;48.116;11.660;2023-05-18T01:16:32;8.90;;;4.70;;
65799;SDS011;52544;48.116;11.660;2023-05-18T01:19:05;11.75;;;4.22;;
65799;SDS011;52544;48.116;11.660;2023-05-18T01:22:02;8.32;;;4.28;;
65799;SDS011;52544;48.116;11.660;2023-05-18T01:24:40;13.05;;;4.60;;
65799;SDS011;52544;48.116;11.660;2023-05-18T01:27:07;9.10;;;4.05;;
65799;SDS011;52544;48.116;11.660;2023-05-18T01:29:33;9.45;;;4.72;;
65799;SDS011;52544;48.116;11.660;2023-05-18T01:31:59;8.07;;;4.25;;
65799;SDS011;52544;48.116;11.660;2023-05-18T01:34:25;9.63;;;4.78;;
65799;SDS011;52544;48.116;11.660;2023-05-18T01:36:51;9.27;;;4.32;;
65799;SDS011;52544;48.116;11.660;2023-05-18T01:39:16;9.80;;;4.78;;
65799;SDS011;52544;48.116;11.660;2023-05-18T01:41:53;10.75;;;4.18;;
65799;SDS011;52544;48.116;11.660;2023-05-18T01:44:26;7.20;;;4.25;;
65799;SDS011;52544;48.116;11.660;2023-05-18T01:50:12;9.30;;;4.65;;
65799;SDS011;52544;48.116;11.660;2023-05-18T01:52:23;10.27;;;4.63;;
65799;SDS011;52544;48.116;11.660;2023-05-18T01:54:56;10.00;;;4.40;;
65799;SDS011;52544;48.116;11.660;2023-05-18T01:57:24;11.13;;;4.72;;
65799;SDS011;52544;48.116;11.660;2023-05-18T01:59:51;9.57;;;4.75;;
65799;SDS011;52544;48.116;11.660;2023-05-18T02:02:18;14.25;;;5.03;;
65799;SDS011;52544;48.116;11.660;2023-05-18T02:04:44;11.00;;;4.95;;
65799;SDS011;52544;48.116;11.660;2023-05-18T02:07:09;8.63;;;4.47;;
65799;SDS011;52544;48.116;11.660;2023-05-18T02:09:35;9.40;;;5.22;;
65799;SDS011;52544;48.116;11.660;2023-05-18T02:12:00;12.38;;;5.25;;
65799;SDS011;52544;48.116;11.660;2023-05-18T02:14:25;10.20;;;5.00;;
65799;SDS011;52544;48.116;11.660;2023-05-18T02:16:51;12.35;;;5.20;;
65799;SDS011;52544;48.116;11.660;2023-05-18T02:19:21;12.80;;;5.10;;
65799;SDS011;52544;48.116;11.660;2023-05-18T02:21:46;9.98;;;4.68;;
65799;SDS011;52544;48.116;11.660;2023-05-18T02:24:12;11.75;;;5.38;;
65799;SDS011;52544;48.116;11.660;2023-05-18T02:26:38;10.77;;;5.15;;
65799;SDS011;52544;48.116;11.660;2023-05-18T02:29:04;10.25;;;5.47;;
65799;SDS011;52544;48.116;11.660;2023-05-18T02:31:38;11.02;;;5.18;;
65799;SDS011;52544;48.116;11.660;2023-05-18T02:34:03;10.80;;;5.25;;
65799;SDS011;52544;48.116;11.660;2023-05-18T02:36:29;12.93;;;5.38;;
65799;SDS011;52544;48.116;11.660;2023-05-18T02:39:01;11.90;;;5.78;;
65799;SDS011;52544;48.116;11.660;2023-05-18T02:41:31;14.57;;;5.78;;
65799;SDS011;52544;48.116;11.660;2023-05-18T02:43:57;10.02;;;5.70;;
65799;SDS011;52544;48.116;11.660;2023-05-18T02:46:22;12.75;;;6.22;;
65799;SDS011;52544;48.116;11.660;2023-05-18T02:48:47;16.38;;;6.88;;
65799;SDS011;52544;48.116;11.660;2023-05-18T02:51:13;9.02;;;5.43;;
65799;SDS011;52544;48.116;11.660;2023-05-18T02:53:38;14.40;;;6.63;;
65799;SDS011;52544;48.116;11.660;2023-05-18T02:56:04;14.70;;;6.65;;
65799;SDS011;52544;48.116;11.660;2023-05-18T02:58:29;14.88;;;6.55;;
65799;SDS011;52544;48.116;11.660;2023-05-18T03:00:55;12.20;;;6.85;;
65799;SDS011;52544;48.116;11.660;2023-05-18T03:03:21;15.93;;;6.50;;
65799;SDS011;52544;48.116;11.660;2023-05-18T03:05:48;14.50;;;6.53;;
65799;SDS011;52544;48.116;11.660;2023-05-18T03:08:18;14.00;;;6.22;;
65799;SDS011;52544;48.116;11.660;2023-05-18T03:10:50;13.15;;;6.43;;
65799;SDS011;52544;48.116;11.660;2023-05-18T03:13:16;13.43;;;6.70;;
65799;SDS011;52544;48.116;11.660;2023-05-18T03:15:41;11.13;;;6.43;;
65799;SDS011;52544;48.116;11.660;2023-05-18T03:18:09;15.30;;;7.00;;
65799;SDS011;52544;48.116;11.660;2023-05-18T03:20:35;17.55;;;7.22;;
65799;SDS011;52544;48.116;11.660;2023-05-18T03:23:02;19.33;;;7.30;;
65799;SDS011;52544;48.116;11.660;2023-05-18T03:25:27;16.98;;;6.82;;
65799;SDS011;52544;48.116;11.660;2023-05-18T03:27:54;13.90;;;7.32;;
65799;SDS011;52544;48.116;11.660;2023-05-18T03:30:23;14.63;;;6.93;;
65799;SDS011;52544;48.116;11.660;2023-05-18T03:32:48;13.55;;;7.38;;
65799;SDS011;52544;48.116;11.660;2023-05-18T03:35:14;15.63;;;7.60;;
65799;SDS011;52544;48.116;11.660;2023-05-18T03:37:39;13.23;;;7.07;;
65799;SDS011;52544;48.116;11.660;2023-05-18T03:40:08;15.95;;;7.35;;
65799;SDS011;52544;48.116;11.660;2023-05-18T03:42:38;18.75;;;7.93;;
65799;SDS011;52544;48.116;11.660;2023-05-18T03:45:04;13.73;;;7.50;;
65799;SDS011;52544;48.116;11.660;2023-05-18T03:47:30;16.60;;;7.82;;
65799;SDS011;52544;48.116;11.660;2023-05-18T03:49:56;12.80;;;7.07;;
65799;SDS011;52544;48.116;11.660;2023-05-18T03:52:21;14.07;;;6.97;;
65799;SDS011;52544;48.116;11.660;2023-05-18T03:54:48;12.20;;;6.85;;
65799;SDS011;52544;48.116;11.660;2023-05-18T03:57:14;13.48;;;7.05;;
65799;SDS011;52544;48.116;11.660;2023-05-18T03:59:41;14.88;;;7.20;;
65799;SDS011;52544;48.116;11.660;2023-05-18T04:02:06;14.35;;;7.57;;
65799;SDS011;52544;48.116;11.660;2023-05-18T04:04:32;15.38;;;7.78;;
65799;SDS011;52544;48.116;11.660;2023-05-18T04:06:58;16.80;;;7.60;;
65799;SDS011;52544;48.116;11.660;2023-05-18T04:09:26;13.45;;;7.32;;
65799;SDS011;52544;48.116;11.660;2023-05-18T04:11:53;16.63;;;7.28;;
65799;SDS011;52544;48.116;11.660;2023-05-18T04:14:18;12.98;;;7.47;;
65799;SDS011;52544;48.116;11.660;2023-05-18T04:16:45;12.95;;;7.45;;
65799;SDS011;52544;48.116;11.660;2023-05-18T04:19:11;15.95;;;8.00;;
65799;SDS011;52544;48.116;11.660;2023-05-18T04:21:37;15.48;;;8.15;;
65799;SDS011;52544;48.116;11.660;2023-05-18T04:24:04;18.20;;;8.23;;
65799;SDS011;52544;48.116;11.660;2023-05-18T04:26:34;16.55;;;7.45;;
65799;SDS011;52544;48.116;11.660;2023-05-18T04:29:02;16.08;;;7.93;;
65799;SDS011;52544;48.116;11.660;2023-05-18T04:31:28;16.60;;;7.93;;
65799;SDS011;52544;48.116;11.660;2023-05-18T04:33:54;12.40;;;7.07;;
65799;SDS011;52544;48.116;11.660;2023-05-18T04:36:20;11.63;;;6.97;;
65799;SDS011;52544;48.116;11.660;2023-05-18T04:38:50;14.27;;;7.78;;
65799;SDS011;52544;48.116;11.660;2023-05-18T04:41:16;15.18;;;8.05;;
65799;SDS011;52544;48.116;11.660;2023-05-18T04:43:44;11.63;;;7.07;;
65799;SDS011;52544;48.116;11.660;2023-05-18T04:46:11;15.00;;;7.25;;
65799;SDS011;52544;48.116;11.660;2023-05-18T04:48:37;13.60;;;6.53;;
65799;SDS011;52544;48.116;11.660;2023-05-18T04:51:03;14.45;;;7.25;;
65799;SDS011;52544;48.116;11.660;2023-05-18T04:53:28;13.70;;;7.32;;
65799;SDS011;52544;48.116;11.660;2023-05-18T04:55:57;13.80;;;6.75;;
65799;SDS011;52544;48.116;11.660;2023-05-18T04:58:24;11.25;;;6.78;;
65799;SDS011;52544;48.116;11.660;2023-05-18T05:00:52;13.30;;;6.95;;
65799;SDS011;52544;48.116;11.660;2023-05-18T05:03:18;14.07;;;6.75;;
65799;SDS011;52544;48.116;11.660;2023-05-18T05:05:43;12.02;;;6.75;;
65799;SDS011;52544;48.116;11.660;2023-05-18T05:08:09;11.57;;;6.97;;
65799;SDS011;52544;48.116;11.660;2023-05-18T05:10:35;15.60;;;6.50;;
65799;SDS011;52544;48.116;11.660;2023-05-18T05:13:01;12.75;;;6.60;;
65799;SDS011;52544;48.116;11.660;2023-05-18T05:15:27;11.27;;;6.32;;
65799;SDS011;52544;48.116;11.660;2023-05-18T05:17:52;14.98;;;6.60;;
65799;SDS011;52544;48.116;11.660;2023-05-18T05:20:18;16.05;;;6.45;;
65799;SDS011;52544;48.116;11.660;2023-05-18T05:22:43;12.48;;;6.40;;
65799;SDS011;52544;48.116;11.660;2023-05-18T05:25:09;13.75;;;6.20;;
65799;SDS011;52544;48.116;11.660;2023-05-18T05:27:36;11.68;;;6.15;;
65799;SDS011;52544;48.116;11.660;2023-05-18T05:30:02;11.43;;;6.30;;
65799;SDS011;52544;48.116;11.660;2023-05-18T05:32:27;12.25;;;6.18;;
65799;SDS011;52544;48.116;11.660;2023-05-18T05:34:53;12.45;;;6.85;;
65799;SDS011;52544;48.116;11.660;2023-05-18T05:37:18;10.18;;;6.35;;
65799;SDS011;52544;48.116;11.660;2023-05-18T05:39:44;11.45;;;6.40;;
65799;SDS011;52544;48.116;11.660;2023-05-18T05:42:09;10.98;;;6.65;;
65799;SDS011;52544;48.116;11.660;2023-05-18T05:44:35;12.70;;;6.47;;
65799;SDS011;52544;48.116;11.660;2023-05-18T05:47:01;11.43;;;6.25;;
65799;SDS011;52544;48.116;11.660;2023-05-18T05:49:26;10.38;;;6.22;;
65799;SDS011;52544;48.116;11.660;2023-05-18T05:51:52;13.07;;;6.32;;
65799;SDS011;52544;48.116;11.660;2023-05-18T05:54:17;9.82;;;6.28;;
65799;SDS011;52544;48.116;11.660;2023-05-18T05:56:43;10.95;;;6.28;;
65799;SDS011;52544;48.116;11.660;2023-05-18T05:59:08;9.90;;;6.18;;
65799;SDS011;52544;48.116;11.660;2023-05-18T06:01:34;12.45;;;6.13;;
65799;SDS011;52544;48.116;11.660;2023-05-18T06:04:00;10.43;;;6.03;;
65799;SDS011;52544;48.116;11.660;2023-05-18T06:06:26;11.38;;;5.60;;
65799;SDS011;52544;48.116;11.660;2023-05-18T06:08:52;11.55;;;6.13;;
65799;SDS011;52544;48.116;11.660;2023-05-18T06:11:17;11.10;;;5.97;;
65799;SDS011;52544;48.116;11.660;2023-05-18T06:13:43;11.32;;;5.82;;
65799;SDS011;52544;48.116;11.660;2023-05-18T06:16:08;10.05;;;6.10;;
65799;SDS011;52544;48.116;11.660;2023-05-18T06:18:34;13.10;;;5.65;;
65799;SDS011;52544;48.116;11.660;2023-05-18T06:20:59;16.55;;;5.60;;
65799;SDS011;52544;48.116;11.660;2023-05-18T06:23:25;10.02;;;5.80;;
65799;SDS011;52544;48.116;11.660;2023-05-18T06:25:50;9.70;;;5.85;;
65799;SDS011;52544;48.116;11.660;2023-05-18T06:28:17;9.10;;;5.47;;
65799;SDS011;52544;48.116;11.660;2023-05-18T06:30:42;10.40;;;5.35;;
65799;SDS011;52544;48.116;11.660;2023-05-18T06:33:08;10.73;;;5.82;;
65799;SDS011;52544;48.116;11.660;2023-05-18T06:35:33;10.57;;;5.32;;
65799;SDS011;52544;48.116;11.660;2023-05-18T06:37:59;8.70;;;5.32;;
65799;SDS011;52544;48.116;11.660;2023-05-18T06:40:24;10.77;;;5.55;;
65799;SDS011;52544;48.116;11.660;2023-05-18T06:42:50;10.63;;;5.53;;
65799;SDS011;52544;48.116;11.660;2023-05-18T06:45:15;14.13;;;4.90;;
65799;SDS011;52544;48.116;11.660;2023-05-18T06:47:41;10.27;;;4.57;;
65799;SDS011;52544;48.116;11.660;2023-05-18T06:50:07;14.38;;;4.38;;
65799;SDS011;52544;48.116;11.660;2023-05-18T06:52:33;13.80;;;4.78;;
65799;SDS011;52544;48.116;11.660;2023-05-18T06:54:59;9.13;;;4.03;;
65799;SDS011;52544;48.116;11.660;2023-05-18T06:57:25;11.40;;;4.50;;
65799;SDS011;52544;48.116;11.660;2023-05-18T06:59:51;12.80;;;4.32;;
65799;SDS011;52544;48.116;11.660;2023-05-18T07:02:18;10.50;;;4.60;;
65799;SDS011;52544;48.116;11.660;2023-05-18T07:04:45;11.15;;;4.05;;
65799;SDS011;52544;48.116;11.660;2023-05-18T07:07:10;9.10;;;3.90;;
65799;SDS011;52544;48.116;11.660;2023-05-18T07:09:36;14.18;;;3.88;;
65799;SDS011;52544;48.116;11.660;2023-05-18T07:12:01;9.95;;;3.95;;
65799;SDS011;52544;48.116;11.660;2023-05-18T07:14:27;9.48;;;3.65;;
65799;SDS011;52544;48.116;11.660;2023-05-18T07:16:52;8.10;;;3.35;;
65799;SDS011;52544;48.116;11.660;2023-05-18T07:19:17;9.48;;;3.20;;
65799;SDS011;52544;48.116;11.660;2023-05-18T07:21:43;6.53;;;3.40;;
65799;SDS011;52544;48.116;11.660;2023-05-18T07:24:08;7.93;;;3.25;;
65799;SDS011;52544;48.116;11.660;2023-05-18T07:26:33;14.57;;;3.60;;
65799;SDS011;52544;48.116;11.660;2023-05-18T07:28:59;9.73;;;3.53;;
65799;SDS011;52544;48.116;11.660;2023-05-18T07:31:25;5.70;;;3.35;;
65799;SDS011;52544;48.116;11.660;2023-05-18T07:33:51;11.45;;;3.58;;
65799;SDS011;52544;48.116;11.660;2023-05-18T07:36:16;8.55;;;3.22;;
65799;SDS011;52544;48.116;11.660;2023-05-18T07:38:41;5.78;;;2.97;;
65799;SDS011;52544;48.116;11.660;2023-05-18T07:41:08;13.00;;;3.80;;
65799;SDS011;52544;48.116;11.660;2023-05-18T07:43:34;8.05;;;3.13;;
65799;SDS011;52544;48.116;11.660;2023-05-18T07:45:59;6.75;;;3.47;;
65799;SDS011;52544;48.116;11.660;2023-05-18T07:48:24;5.20;;;3.20;;
65799;SDS011;52544;48.116;11.660;2023-05-18T07:50:50;6.43;;;3.05;;
65799;SDS011;52544;48.116;11.660;2023-05-18T07:53:15;8.23;;;3.05;;
65799;SDS011;52544;48.116;11.660;2023-05-18T07:55:41;9.48;;;3.17;;
65799;SDS011;52544;48.116;11.660;2023-05-18T07:58:06;7.25;;;3.17;;
65799;SDS011;52544;48.116;11.660;2023-05-18T08:00:32;8.00;;;3.17;;
65799;SDS011;52544;48.116;11.660;2023-05-18T08:02:58;6.82;;;2.97;;
65799;SDS011;52544;48.116;11.660;2023-05-18T08:05:25;8.18;;;3.10;;
65799;SDS011;52544;48.116;11.660;2023-05-18T08:07:50;7.47;;;3.58;;
65799;SDS011;52544;48.116;11.660;2023-05-18T08:10:16;9.40;;;2.95;;
65799;SDS011;52544;48.116;11.660;2023-05-18T08:12:42;11.77;;;4.40;;
65799;SDS011;52544;48.116;11.660;2023-05-18T08:15:07;11.68;;;3.42;;
65799;SDS011;52544;48.116;11.660;2023-05-18T08:17:34;13.98;;;3.95;;
65799;SDS011;52544;48.116;11.660;2023-05-18T08:19:59;8.25;;;3.67;;
65799;SDS011;52544;48.116;11.660;2023-05-18T08:22:25;14.48;;;4.20;;
65799;SDS011;52544;48.116;11.660;2023-05-18T08:24:50;12.82;;;4.32;;
65799;SDS011;52544;48.116;11.660;2023-05-18T08:27:16;9.68;;;3.67;;
65799;SDS011;52544;48.116;11.660;2023-05-18T08:29:41;10.93;;;3.83;;
65799;SDS011;52544;48.116;11.660;2023-05-18T08:32:06;10.18;;;4.60;;
65799;SDS011;52544;48.116;11.660;2023-05-18T08:34:32;23.88;;;4.55;;
65799;SDS011;52544;48.116;11.660;2023-05-18T08:36:58;9.45;;;3.78;;
65799;SDS011;52544;48.116;11.660;2023-05-18T08:39:24;9.20;;;3.80;;
65799;SDS011;52544;48.116;11.660;2023-05-18T08:41:54;8.50;;;3.65;;
65799;SDS011;52544;48.116;11.660;2023-05-18T08:44:37;9.23;;;3.95;;
65799;SDS011;52544;48.116;11.660;2023-05-18T08:47:07;11.25;;;3.67;;
65799;SDS011;52544;48.116;11.660;2023-05-18T08:49:34;8.77;;;3.90;;
65799;SDS011;52544;48.116;11.660;2023-05-18T08:52:02;12.43;;;3.92;;
65799;SDS011;52544;48.116;11.660;2023-05-18T08:54:29;7.50;;;3.38;;
65799;SDS011;52544;48.116;11.660;2023-05-18T08:56:55;9.25;;;3.58;;
65799;SDS011;52544;48.116;11.660;2023-05-18T08:59:23;10.82;;;3.78;;
65799;SDS011;52544;48.116;11.660;2023-05-18T09:01:50;10.35;;;4.85;;
65799;SDS011;52544;48.116;11.660;2023-05-18T09:04:17;15.27;;;4.28;;
65799;SDS011;52544;48.116;11.660;2023-05-18T09:06:43;10.55;;;3.92;;
65799;SDS011;52544;48.116;11.660;2023-05-18T09:09:11;8.60;;;4.13;;
65799;SDS011;52544;48.116;11.660;2023-05-18T09:11:38;9.40;;;4.03;;
65799;SDS011;52544;48.116;11.660;2023-05-18T09:14:03;14.90;;;4.65;;
65799;SDS011;52544;48.116;11.660;2023-05-18T09:16:29;8.88;;;4.35;;
65799;SDS011;52544;48.116;11.660;2023-05-18T09:18:55;7.22;;;4.03;;
65799;SDS011;52544;48.116;11.660;2023-05-18T09:21:21;12.90;;;4.43;;
65799;SDS011;52544;48.116;11.660;2023-05-18T09:23:46;7.65;;;4.00;;
65799;SDS011;52544;48.116;11.660;2023-05-18T09:26:12;7.72;;;4.13;;
65799;SDS011;52544;48.116;11.660;2023-05-18T09:31:04;12.48;;;4.00;;
65799;SDS011;52544;48.116;11.660;2023-05-18T09:33:36;7.75;;;4.10;;
65799;SDS011;52544;48.116;11.660;2023-05-18T09:36:03;16.10;;;4.22;;
65799;SDS011;52544;48.116;11.660;2023-05-18T09:38:39;8.32;;;4.00;;
65799;SDS011;52544;48.116;11.660;2023-05-18T09:41:13;10.95;;;4.03;;
65799;SDS011;52544;48.116;11.660;2023-05-18T09:43:41;9.35;;;3.97;;
65799;SDS011;52544;48.116;11.660;2023-05-18T09:46:08;10.45;;;4.55;;
65799;SDS011;52544;48.116;11.660;2023-05-18T09:48:35;9.20;;;4.35;;
65799;SDS011;52544;48.116;11.660;2023-05-18T09:51:02;11.18;;;4.60;;
65799;SDS011;52544;48.116;11.660;2023-05-18T09:53:30;8.02;;;4.30;;
65799;SDS011;52544;48.116;11.660;2023-05-18T09:56:00;8.85;;;4.22;;
65799;SDS011;52544;48.116;11.660;2023-05-18T09:58:30;10.27;;;4.43;;
65799;SDS011;52544;48.116;11.660;2023-05-18T10:00:58;12.05;;;4.43;;
65799;SDS011;52544;48.116;11.660;2023-05-18T10:03:25;11.98;;;4.55;;
65799;SDS011;52544;48.116;11.660;2023-05-18T10:06:02;11.43;;;4.68;;
65799;SDS011;52544;48.116;11.660;2023-05-18T10:08:32;16.42;;;5.00;;
65799;SDS011;52544;48.116;11.660;2023-05-18T10:10:58;13.57;;;4.68;;
65799;SDS011;52544;48.116;11.660;2023-05-18T10:13:24;7.82;;;3.95;;
65799;SDS011;52544;48.116;11.660;2023-05-18T10:15:53;9.95;;;4.07;;
65799;SDS011;52544;48.116;11.660;2023-05-18T10:18:21;7.88;;;4.07;;
65799;SDS011;52544;48.116;11.660;2023-05-18T10:20:48;7.78;;;3.55;;
65799;SDS011;52544;48.116;11.660;2023-05-18T10:23:15;15.30;;;3.72;;
65799;SDS011;52544;48.116;11.660;2023-05-18T10:25:43;8.57;;;3.67;;
65799;SDS011;52544;48.116;11.660;2023-05-18T10:28:10;9.50;;;3.83;;
65799;SDS011;52544;48.116;11.660;2023-05-18T10:30:36;8.82;;;3.60;;
65799;SDS011;52544;48.116;11.660;2023-05-18T10:33:06;8.20;;;4.28;;
65799;SDS011;52544;48.116;11.660;2023-05-18T10:35:34;9.25;;;4.13;;
65799;SDS011;52544;48.116;11.660;2023-05-18T10:38:02;6.18;;;3.45;;
65799;SDS011;52544;48.116;11.660;2023-05-18T10:40:29;7.13;;;3.20;;
65799;SDS011;52544;48.116;11.660;2023-05-18T10:42:58;13.95;;;4.03;;
65799;SDS011;52544;48.116;11.660;2023-05-18T10:45:27;9.40;;;4.00;;
65799;SDS011;52544;48.116;11.660;2023-05-18T10:47:57;9.13;;;3.75;;
65799;SDS011;52544;48.116;11.660;2023-05-18T10:50:24;8.85;;;3.42;;
65799;SDS011;52544;48.116;11.660;2023-05-18T10:52:50;6.68;;;3.42;;
65799;SDS011;52544;48.116;11.660;2023-05-18T10:55:17;8.25;;;4.25;;
65799;SDS011;52544;48.116;11.660;2023-05-18T10:57:48;6.05;;;3.70;;
65799;SDS011;52544;48.116;11.660;2023-05-18T11:00:18;11.63;;;4.13;;
65799;SDS011;52544;48.116;11.660;2023-05-18T11:02:44;7.82;;;3.92;;
65799;SDS011;52544;48.116;11.660;2023-05-18T11:05:10;8.65;;;3.70;;
65799;SDS011;52544;48.116;11.660;2023-05-18T11:07:36;7.00;;;3.50;;
65799;SDS011;52544;48.116;11.660;2023-05-18T11:10:02;9.38;;;3.40;;
65799;SDS011;52544;48.116;11.660;2023-05-18T11:12:34;7.97;;;3.70;;
65799;SDS011;52544;48.116;11.660;2023-05-18T11:15:02;8.90;;;3.60;;
65799;SDS011;52544;48.116;11.660;2023-05-18T11:17:30;4.93;;;3.33;;
65799;SDS011;52544;48.116;11.660;2023-05-18T11:27:56;10.90;;;3.53;;
65799;SDS011;52544;48.116;11.660;2023-05-18T11:30:47;7.10;;;3.58;;
65799;SDS011;52544;48.116;11.660;2023-05-18T11:33:13;6.82;;;3.60;;
65799;SDS011;52544;48.116;11.660;2023-05-18T11:41:31;7.75;;;3.42;;
65799;SDS011;52544;48.116;11.660;2023-05-18T11:44:04;6.60;;;3.55;;
65799;SDS011;52544;48.116;11.660;2023-05-18T11:46:36;5.88;;;3.28;;
65799;SDS011;52544;48.116;11.660;2023-05-18T11:49:10;6.63;;;3.53;;
65799;SDS011;52544;48.116;11.660;2023-05-18T11:54:38;8.00;;;3.53;;
65799;SDS011;52544;48.116;11.660;2023-05-18T11:57:17;4.57;;;3.15;;
65799;SDS011;52544;48.116;11.660;2023-05-18T11:59:44;9.88;;;4.05;;
65799;SDS011;52544;48.116;11.660;2023-05-18T12:02:13;8.07;;;3.38;;
65799;SDS011;52544;48.116;11.660;2023-05-18T12:04:44;8.40;;;3.00;;
65799;SDS011;52544;48.116;11.660;2023-05-18T12:07:12;7.35;;;3.00;;
65799;SDS011;52544;48.116;11.660;2023-05-18T12:09:41;12.85;;;3.40;;
65799;SDS011;52544;48.116;11.660;2023-05-18T12:12:08;4.43;;;3.28;;
65799;SDS011;52544;48.116;11.660;2023-05-18T12:14:36;5.78;;;2.85;;
65799;SDS011;52544;48.116;11.660;2023-05-18T12:17:03;5.40;;;3.05;;
65799;SDS011;52544;48.116;11.660;2023-05-18T12:19:35;3.42;;;2.47;;
65799;SDS011;52544;48.116;11.660;2023-05-18T12:22:01;5.05;;;2.92;;
65799;SDS011;52544;48.116;11.660;2023-05-18T12:24:28;6.68;;;3.05;;
65799;SDS011;52544;48.116;11.660;2023-05-18T12:26:54;6.70;;;3.25;;
65799;SDS011;52544;48.116;11.660;2023-05-18T12:29:20;7.25;;;3.03;;
65799;SDS011;52544;48.116;11.660;2023-05-18T12:31:47;8.07;;;3.05;;
65799;SDS011;52544;48.116;11.660;2023-05-18T12:34:13;8.80;;;3.55;;
65799;SDS011;52544;48.116;11.660;2023-05-18T12:36:50;7.75;;;3.40;;
65799;SDS011;52544;48.116;11.660;2023-05-18T12:39:16;5.85;;;3.53;;
65799;SDS011;52544;48.116;11.660;2023-05-18T12:41:42;6.50;;;3.03;;
65799;SDS011;52544;48.116;11.660;2023-05-18T12:44:07;6.28;;;2.60;;
65799;SDS011;52544;48.116;11.660;2023-05-18T12:46:32;5.63;;;3.22;;
65799;SDS011;52544;48.116;11.660;2023-05-18T12:48:58;5.20;;;3.33;;
65799;SDS011;52544;48.116;11.660;2023-05-18T12:51:35;7.20;;;3.53;;
65799;SDS011;52544;48.116;11.660;2023-05-18T12:54:03;7.40;;;3.65;;
65799;SDS011;52544;48.116;11.660;2023-05-18T12:59:18;7.75;;;3.30;;
65799;SDS011;52544;48.116;11.660;2023-05-18T13:01:44;6.00;;;2.97;;
65799;SDS011;52544;48.116;11.660;2023-05-18T13:04:10;5.95;;;3.67;;
65799;SDS011;52544;48.116;11.660;2023-05-18T13:06:36;9.15;;;3.83;;
65799;SDS011;52544;48.116;11.660;2023-05-18T13:09:02;8.38;;;3.80;;
65799;SDS011;52544;48.116;11.660;2023-05-18T13:11:31;4.75;;;2.88;;
65799;SDS011;52544;48.116;11.660;2023-05-18T13:13:59;5.25;;;3.13;;
65799;SDS011;52544;48.116;11.660;2023-05-18T13:16:26;5.35;;;3.28;;
65799;SDS011;52544;48.116;11.660;2023-05-18T13:18:54;8.02;;;3.22;;
65799;SDS011;52544;48.116;11.660;2023-05-18T13:21:24;8.88;;;3.20;;
65799;SDS011;52544;48.116;11.660;2023-05-18T13:23:49;4.97;;;3.20;;
65799;SDS011;52544;48.116;11.660;2023-05-18T13:26:15;7.97;;;3.80;;
65799;SDS011;52544;48.116;11.660;2023-05-18T13:28:43;6.18;;;3.80;;
65799;SDS011;52544;48.116;11.660;2023-05-18T13:31:10;5.88;;;3.25;;
65799;SDS011;52544;48.116;11.660;2023-05-18T13:33:35;5.65;;;3.08;;
65799;SDS011;52544;48.116;11.660;2023-05-18T13:36:01;10.40;;;3.53;;
65799;SDS011;52544;48.116;11.660;2023-05-18T13:38:26;8.15;;;3.60;;
65799;SDS011;52544;48.116;11.660;2023-05-18T13:40:52;8.50;;;3.42;;
65799;SDS011;52544;48.116;11.660;2023-05-18T13:43:17;6.88;;;3.15;;
65799;SDS011;52544;48.116;11.660;2023-05-18T13:45:43;10.30;;;3.50;;
65799;SDS011;52544;48.116;11.660;2023-05-18T13:48:08;6.93;;;2.90;;
65799;SDS011;52544;48.116;11.660;2023-05-18T13:50:34;7.40;;;3.33;;
65799;SDS011;52544;48.116;11.660;2023-05-18T13:52:59;7.95;;;3.22;;
65799;SDS011;52544;48.116;11.660;2023-05-18T13:55:25;10.70;;;3.60;;
65799;SDS011;52544;48.116;11.660;2023-05-18T13:57:51;10.13;;;3.60;;
65799;SDS011;52544;48.116;11.660;2023-05-18T14:00:16;8.85;;;3.22;;
65799;SDS011;52544;48.116;11.660;2023-05-18T14:02:42;6.85;;;3.47;;
65799;SDS011;52544;48.116;11.660;2023-05-18T14:05:09;7.13;;;3.28;;
65799;SDS011;52544;48.116;11.660;2023-05-18T14:07:35;10.32;;;3.40;;
65799;SDS011;52544;48.116;11.660;2023-05-18T14:10:01;5.95;;;2.92;;
65799;SDS011;52544;48.116;11.660;2023-05-18T14:12:27;7.93;;;3.25;;
65799;SDS011;52544;48.116;11.660;2023-05-18T14:14:53;5.45;;;2.90;;
65799;SDS011;52544;48.116;11.660;2023-05-18T14:17:18;6.63;;;3.17;;
65799;SDS011;52544;48.116;11.660;2023-05-18T14:19:44;8.38;;;3.17;;
65799;SDS011;52544;48.116;11.660;2023-05-18T14:22:09;7.43;;;3.63;;
65799;SDS011;52544;48.116;11.660;2023-05-18T14:24:34;9.40;;;3.20;;
65799;SDS011;52544;48.116;11.660;2023-05-18T14:27:00;4.95;;;2.95;;
65799;SDS011;52544;48.116;11.660;2023-05-18T14:29:25;5.85;;;2.92;;
65799;SDS011;52544;48.116;11.660;2023-05-18T14:31:51;8.00;;;2.90;;
65799;SDS011;52544;48.116;11.660;2023-05-18T14:34:16;6.22;;;3.33;;
65799;SDS011;52544;48.116;11.660;2023-05-18T14:36:41;7.43;;;3.35;;
65799;SDS011;52544;48.116;11.660;2023-05-18T14:39:07;5.47;;;3.38;;
65799;SDS011;52544;48.116;11.660;2023-05-18T14:41:32;5.78;;;2.67;;
65799;SDS011;52544;48.116;11.660;2023-05-18T14:43:58;6.00;;;2.85;;
65799;SDS011;52544;48.116;11.660;2023-05-18T14:46:23;8.27;;;3.03;;
65799;SDS011;52544;48.116;11.660;2023-05-18T14:48:48;4.97;;;2.80;;
65799;SDS011;52544;48.116;11.660;2023-05-18T14:51:14;5.47;;;2.60;;
65799;SDS011;52544;48.116;11.660;2023-05-18T14:53:40;5.47;;;2.45;;
65799;SDS011;52544;48.116;11.660;2023-05-18T14:56:06;6.80;;;2.33;;